sensor_id;sensor_type;location;lat;lon;timestamp;P1;durP1;ratioP1;P2;durP2;ratioP2
54557;SDS011;40452;50.080;20.040;2022-08-05T04:14:28;9.63;;;4.70;;
54557;SDS011;40452;50.080;20.040;2022-08-05T04:16:54;11.02;;;5.03;;
54557;SDS011;40452;50.080;20.040;2022-08-05T04:19:20;8.68;;;5.03;;
54557;SDS011;40452;50.080;20.040;2022-08-05T04:21:46;8.57;;;5.03;;
54557;SDS011;40452;50.080;20.040;2022-08-05T04:24:11;6.72;;;4.63;;
54557;SDS011;40452;50.080;20.040;2022-08-05T04:26:37;9.68;;;4.20;;
54557;SDS011;40452;50.080;20.040;2022-08-05T04:29:03;11.38;;;4.95;;
54557;SDS011;40452;50.080;20.040;2022-08-05T04:31:28;7.10;;;4.50;;
54557;SDS011;40452;50.080;20.040;2022-08-05T04:33:54;9.32;;;4.78;;
54557;SDS011;40452;50.080;20.040;2022-08-05T04:36:19;7.95;;;4.70;;
54557;SDS011;40452;50.080;20.040;2022-08-05T04:38:45;10.93;;;4.93;;
54557;SDS011;40452;50.080;20.040;2022-08-05T04:41:10;7.00;;;4.72;;
54557;SDS011;40452;50.080;20.040;2022-08-05T04:43:36;6.97;;;4.60;;
54557;SDS011;40452;50.080;20.040;2022-08-05T04:46:03;9.48;;;5.10;;
54557;SDS011;40452;50.080;20.040;2022-08-05T04:48:29;9.23;;;4.90;;
54557;SDS011;40452;50.080;20.040;2022-08-05T04:50:55;13.00;;;4.85;;
54557;SDS011;40452;50.080;20.040;2022-08-05T04:53:21;10.57;;;5.22;;
54557;SDS011;40452;50.080;20.040;2022-08-05T04:55:46;9.13;;;4.55;;
54557;SDS011;40452;50.080;20.040;2022-08-05T04:58:13;9.88;;;4.60;;
54557;SDS011;40452;50.080;20.040;2022-08-05T05:00:40;7.97;;;4.35;;
54557;SDS011;40452;50.080;20.040;2022-08-05T05:03:06;9.48;;;4.15;;
54557;SDS011;40452;50.080;20.040;2022-08-05T05:05:33;11.20;;;5.13;;
54557;SDS011;40452;50.080;20.040;2022-08-05T05:08:00;12.10;;;4.82;;
54557;SDS011;40452;50.080;20.040;2022-08-05T05:10:28;7.32;;;4.47;;
54557;SDS011;40452;50.080;20.040;2022-08-05T05:12:54;11.90;;;4.82;;
54557;SDS011;40452;50.080;20.040;2022-08-05T05:15:20;7.90;;;4.53;;
54557;SDS011;40452;50.080;20.040;2022-08-05T05:17:45;10.18;;;5.25;;
54557;SDS011;40452;50.080;20.040;2022-08-05T05:20:11;8.07;;;4.65;;
54557;SDS011;40452;50.080;20.040;2022-08-05T05:22:37;7.18;;;4.70;;
54557;SDS011;40452;50.080;20.040;2022-08-05T05:25:04;9.32;;;4.88;;
54557;SDS011;40452;50.080;20.040;2022-08-05T05:27:31;14.27;;;5.50;;
54557;SDS011;40452;50.080;20.040;2022-08-05T05:29:57;11.40;;;5.43;;
54557;SDS011;40452;50.080;20.040;2022-08-05T05:32:23;15.43;;;5.45;;
54557;SDS011;40452;50.080;20.040;2022-08-05T05:34:49;8.63;;;5.25;;
54557;SDS011;40452;50.080;20.040;2022-08-05T05:37:14;11.98;;;5.25;;
54557;SDS011;40452;50.080;20.040;2022-08-05T05:39:40;9.70;;;5.57;;
54557;SDS011;40452;50.080;20.040;2022-08-05T05:42:06;10.93;;;5.72;;
54557;SDS011;40452;50.080;20.040;2022-08-05T05:44:31;11.98;;;6.80;;
54557;SDS011;40452;50.080;20.040;2022-08-05T05:46:57;18.60;;;7.40;;
54557;SDS011;40452;50.080;20.040;2022-08-05T05:49:24;14.25;;;7.00;;
54557;SDS011;40452;50.080;20.040;2022-08-05T05:51:50;12.10;;;6.82;;
54557;SDS011;40452;50.080;20.040;2022-08-05T05:54:15;15.05;;;6.65;;
54557;SDS011;40452;50.080;20.040;2022-08-05T05:56:41;13.43;;;5.90;;
54557;SDS011;40452;50.080;20.040;2022-08-05T05:59:06;14.10;;;6.60;;
54557;SDS011;40452;50.080;20.040;2022-08-05T06:01:33;18.30;;;6.72;;
54557;SDS011;40452;50.080;20.040;2022-08-05T14:04:51;4.90;;;4.47;;
54557;SDS011;40452;50.080;20.040;2022-08-05T14:07:36;11.02;;;4.50;;
54557;SDS011;40452;50.080;20.040;2022-08-05T14:10:07;7.45;;;4.95;;
54557;SDS011;40452;50.080;20.040;2022-08-05T14:12:34;9.02;;;5.18;;
54557;SDS011;40452;50.080;20.040;2022-08-05T14:15:00;7.20;;;5.00;;
54557;SDS011;40452;50.080;20.040;2022-08-05T14:17:26;8.75;;;5.47;;
54557;SDS011;40452;50.080;20.040;2022-08-05T14:19:52;7.63;;;5.05;;
54557;SDS011;40452;50.080;20.040;2022-08-05T14:22:18;9.02;;;5.60;;
54557;SDS011;40452;50.080;20.040;2022-08-05T14:24:45;14.18;;;5.90;;
54557;SDS011;40452;50.080;20.040;2022-08-05T14:27:11;6.82;;;5.93;;
54557;SDS011;40452;50.080;20.040;2022-08-05T14:29:36;11.48;;;7.05;;
54557;SDS011;40452;50.080;20.040;2022-08-05T14:34:46;10.07;;;6.03;;
54557;SDS011;40452;50.080;20.040;2022-08-05T14:37:12;11.23;;;5.82;;
54557;SDS011;40452;50.080;20.040;2022-08-05T14:39:37;11.85;;;5.80;;
54557;SDS011;40452;50.080;20.040;2022-08-05T14:42:03;10.65;;;6.20;;
54557;SDS011;40452;50.080;20.040;2022-08-05T14:44:28;11.98;;;6.15;;
54557;SDS011;40452;50.080;20.040;2022-08-05T14:46:54;10.02;;;5.97;;
54557;SDS011;40452;50.080;20.040;2022-08-05T14:49:20;6.80;;;5.68;;
54557;SDS011;40452;50.080;20.040;2022-08-05T14:51:45;7.07;;;5.88;;
54557;SDS011;40452;50.080;20.040;2022-08-05T14:54:11;7.43;;;5.70;;
54557;SDS011;40452;50.080;20.040;2022-08-05T14:56:37;12.40;;;5.78;;
54557;SDS011;40452;50.080;20.040;2022-08-05T14:59:02;8.30;;;5.80;;
54557;SDS011;40452;50.080;20.040;2022-08-05T15:01:28;13.23;;;6.57;;
54557;SDS011;40452;50.080;20.040;2022-08-05T15:03:53;14.05;;;6.07;;
54557;SDS011;40452;50.080;20.040;2022-08-05T15:06:19;14.95;;;6.05;;
54557;SDS011;40452;50.080;20.040;2022-08-05T15:08:44;10.30;;;5.90;;
54557;SDS011;40452;50.080;20.040;2022-08-05T15:11:10;6.60;;;5.45;;
54557;SDS011;40452;50.080;20.040;2022-08-05T15:13:36;10.02;;;6.00;;
54557;SDS011;40452;50.080;20.040;2022-08-05T15:16:02;7.78;;;5.57;;
54557;SDS011;40452;50.080;20.040;2022-08-05T15:18:28;12.52;;;6.15;;
54557;SDS011;40452;50.080;20.040;2022-08-05T15:20:54;7.65;;;5.63;;
54557;SDS011;40452;50.080;20.040;2022-08-05T15:23:19;9.20;;;5.75;;
54557;SDS011;40452;50.080;20.040;2022-08-05T15:25:45;9.02;;;6.22;;
54557;SDS011;40452;50.080;20.040;2022-08-05T15:28:11;8.48;;;6.25;;
54557;SDS011;40452;50.080;20.040;2022-08-05T15:30:37;10.27;;;6.20;;
54557;SDS011;40452;50.080;20.040;2022-08-05T15:33:03;11.93;;;6.05;;
54557;SDS011;40452;50.080;20.040;2022-08-05T15:35:30;10.07;;;5.88;;
54557;SDS011;40452;50.080;20.040;2022-08-05T19:47:28;13.75;;;8.20;;
54557;SDS011;40452;50.080;20.040;2022-08-05T19:49:53;21.00;;;8.57;;
54557;SDS011;40452;50.080;20.040;2022-08-05T19:52:19;17.40;;;9.38;;
54557;SDS011;40452;50.080;20.040;2022-08-05T19:54:44;18.92;;;9.05;;
54557;SDS011;40452;50.080;20.040;2022-08-05T19:57:10;13.20;;;8.20;;
54557;SDS011;40452;50.080;20.040;2022-08-05T19:59:36;16.92;;;9.32;;
54557;SDS011;40452;50.080;20.040;2022-08-05T20:02:03;17.30;;;8.93;;
54557;SDS011;40452;50.080;20.040;2022-08-05T20:04:29;15.15;;;8.60;;
54557;SDS011;40452;50.080;20.040;2022-08-05T20:06:54;15.55;;;8.48;;
54557;SDS011;40452;50.080;20.040;2022-08-05T20:09:20;12.68;;;8.48;;
54557;SDS011;40452;50.080;20.040;2022-08-05T20:11:46;13.93;;;8.00;;
54557;SDS011;40452;50.080;20.040;2022-08-05T20:14:12;11.45;;;8.55;;
54557;SDS011;40452;50.080;20.040;2022-08-05T20:16:37;14.23;;;8.75;;
54557;SDS011;40452;50.080;20.040;2022-08-05T20:19:03;16.13;;;9.30;;
54557;SDS011;40452;50.080;20.040;2022-08-05T20:21:29;16.10;;;8.50;;
54557;SDS011;40452;50.080;20.040;2022-08-05T20:23:55;16.50;;;9.80;;
54557;SDS011;40452;50.080;20.040;2022-08-05T20:26:22;17.50;;;9.48;;
54557;SDS011;40452;50.080;20.040;2022-08-05T20:28:52;14.95;;;8.82;;
54557;SDS011;40452;50.080;20.040;2022-08-05T20:31:21;18.65;;;9.80;;
54557;SDS011;40452;50.080;20.040;2022-08-05T20:33:47;20.23;;;9.40;;
54557;SDS011;40452;50.080;20.040;2022-08-05T20:36:13;14.50;;;9.73;;
54557;SDS011;40452;50.080;20.040;2022-08-05T20:38:39;16.75;;;9.15;;
54557;SDS011;40452;50.080;20.040;2022-08-05T20:41:05;15.73;;;9.18;;
54557;SDS011;40452;50.080;20.040;2022-08-05T20:43:31;19.33;;;9.32;;
54557;SDS011;40452;50.080;20.040;2022-08-05T20:45:57;21.50;;;9.65;;
54557;SDS011;40452;50.080;20.040;2022-08-05T20:48:23;19.70;;;9.43;;
54557;SDS011;40452;50.080;20.040;2022-08-05T20:50:48;14.80;;;9.02;;
54557;SDS011;40452;50.080;20.040;2022-08-05T20:53:14;14.48;;;9.32;;
54557;SDS011;40452;50.080;20.040;2022-08-05T20:55:39;15.02;;;8.95;;
54557;SDS011;40452;50.080;20.040;2022-08-05T20:58:05;17.52;;;8.77;;
54557;SDS011;40452;50.080;20.040;2022-08-05T21:00:30;15.57;;;8.70;;
54557;SDS011;40452;50.080;20.040;2022-08-05T21:02:56;18.15;;;9.35;;
54557;SDS011;40452;50.080;20.040;2022-08-05T21:05:24;18.95;;;9.07;;
54557;SDS011;40452;50.080;20.040;2022-08-05T21:07:50;20.58;;;9.18;;
54557;SDS011;40452;50.080;20.040;2022-08-05T21:10:15;16.90;;;9.45;;
54557;SDS011;40452;50.080;20.040;2022-08-05T21:12:41;15.55;;;8.60;;
54557;SDS011;40452;50.080;20.040;2022-08-05T21:15:07;15.35;;;9.05;;
54557;SDS011;40452;50.080;20.040;2022-08-05T21:17:32;17.40;;;9.88;;
54557;SDS011;40452;50.080;20.040;2022-08-05T21:19:58;19.20;;;9.52;;
54557;SDS011;40452;50.080;20.040;2022-08-05T21:22:23;14.73;;;9.88;;
54557;SDS011;40452;50.080;20.040;2022-08-05T21:24:50;16.05;;;9.60;;
54557;SDS011;40452;50.080;20.040;2022-08-05T21:27:15;17.40;;;9.75;;
54557;SDS011;40452;50.080;20.040;2022-08-05T21:29:41;16.38;;;10.00;;
54557;SDS011;40452;50.080;20.040;2022-08-05T21:32:07;15.75;;;9.75;;
54557;SDS011;40452;50.080;20.040;2022-08-05T21:34:32;11.93;;;9.02;;
54557;SDS011;40452;50.080;20.040;2022-08-05T21:36:58;18.10;;;10.43;;
54557;SDS011;40452;50.080;20.040;2022-08-05T21:39:23;17.33;;;10.20;;
54557;SDS011;40452;50.080;20.040;2022-08-05T21:41:49;22.27;;;10.57;;
54557;SDS011;40452;50.080;20.040;2022-08-05T21:44:14;19.63;;;10.93;;
54557;SDS011;40452;50.080;20.040;2022-08-05T21:46:40;17.63;;;10.55;;
54557;SDS011;40452;50.080;20.040;2022-08-05T21:49:05;19.10;;;10.43;;
54557;SDS011;40452;50.080;20.040;2022-08-05T21:51:31;20.80;;;11.15;;
54557;SDS011;40452;50.080;20.040;2022-08-05T21:53:57;20.73;;;11.50;;
54557;SDS011;40452;50.080;20.040;2022-08-05T21:56:22;16.95;;;9.80;;
54557;SDS011;40452;50.080;20.040;2022-08-05T21:58:48;17.75;;;11.38;;
54557;SDS011;40452;50.080;20.040;2022-08-05T22:01:13;17.63;;;10.88;;
54557;SDS011;40452;50.080;20.040;2022-08-05T22:03:39;14.55;;;10.65;;
54557;SDS011;40452;50.080;20.040;2022-08-05T22:06:04;15.50;;;9.80;;
54557;SDS011;40452;50.080;20.040;2022-08-05T22:08:30;21.95;;;10.75;;
54557;SDS011;40452;50.080;20.040;2022-08-05T22:10:56;17.35;;;10.10;;
